createdAt,value
2022-10-17T00:01:19.798Z,52.66
2022-10-17T00:04:06.563Z,52.51
2022-10-17T00:06:46.649Z,52.31
2022-10-17T00:09:33.529Z,52.79
2022-10-17T00:12:13.666Z,52.91
2022-10-17T00:15:00.582Z,53.27
2022-10-17T00:17:42.067Z,52.61
2022-10-17T00:20:28.515Z,52.68
2022-10-17T00:23:08.640Z,53.30
2022-10-17T00:26:04.535Z,53.09
2022-10-17T00:28:56.679Z,52.96
2022-10-17T00:31:36.521Z,52.85
2022-10-17T00:34:23.532Z,52.37
2022-10-17T00:37:03.653Z,52.28
2022-10-17T00:39:50.522Z,52.38
2022-10-17T00:42:30.879Z,51.35
2022-10-17T00:45:38.521Z,51.29
2022-10-17T00:48:22.573Z,52.15
2022-10-17T00:51:10.467Z,51.87
2022-10-17T00:53:51.896Z,52.09
2022-10-17T00:56:39.488Z,52.38
2022-10-17T00:59:28.499Z,52.11
2022-10-17T01:02:11.764Z,52.77
2022-10-17T01:05:03.509Z,52.23
2022-10-17T01:07:44.909Z,53.00
2022-10-17T01:10:32.499Z,52.37
2022-10-17T01:13:31.448Z,52.70
2022-10-17T01:16:31.496Z,53.00
2022-10-17T01:19:48.929Z,52.31
2022-10-17T01:22:55.458Z,52.62
2022-10-17T01:26:03.537Z,51.99
2022-10-17T01:29:19.468Z,52.13
2022-10-17T01:32:15.494Z,52.32
2022-10-17T01:35:00.364Z,51.99
2022-10-17T01:38:19.421Z,52.05
2022-10-17T01:40:59.731Z,52.11
2022-10-17T01:43:54.429Z,52.14
2022-10-17T01:46:44.433Z,52.17
2022-10-17T01:49:37.435Z,52.90
2022-10-17T01:52:35.422Z,52.25
2022-10-17T01:55:30.445Z,53.14
2022-10-17T01:58:20.794Z,52.71
2022-10-17T02:01:10.483Z,52.85
2022-10-17T02:03:59.410Z,53.14
2022-10-17T02:06:43.505Z,53.38
2022-10-17T02:09:32.437Z,53.48
2022-10-17T02:12:41.465Z,53.48
2022-10-17T02:15:57.383Z,53.27
2022-10-17T02:19:05.406Z,53.95
2022-10-17T02:22:21.395Z,53.47
2022-10-17T02:25:46.476Z,53.40
2022-10-17T02:28:45.417Z,52.63
2022-10-17T02:31:38.444Z,53.29
2022-10-17T02:34:34.372Z,52.97
2022-10-17T02:37:25.597Z,53.08
2022-10-17T02:40:08.829Z,53.07
2022-10-17T02:42:58.317Z,52.31
2022-10-17T02:45:47.439Z,53.19
2022-10-17T02:48:49.329Z,53.06
2022-10-17T02:51:59.349Z,52.95
2022-10-17T02:54:56.318Z,52.81
2022-10-17T02:58:00.351Z,53.55
2022-10-17T03:00:46.478Z,53.42
2022-10-17T03:03:35.371Z,53.50
2022-10-17T03:25:40.537Z,54.67
2022-10-17T03:28:21.963Z,54.62
2022-10-17T03:31:08.513Z,54.31
2022-10-17T03:33:56.528Z,53.79
2022-10-17T03:36:36.623Z,53.70
2022-10-17T03:39:23.477Z,54.05
2022-10-17T03:42:10.486Z,53.76
2022-10-17T03:44:50.895Z,53.62
2022-10-17T03:47:37.483Z,53.58
2022-10-17T03:50:24.523Z,52.90
2022-10-17T03:53:13.482Z,53.14
2022-10-17T03:55:54.148Z,53.36
2022-10-17T03:58:40.455Z,53.06
2022-10-17T04:01:29.529Z,54.11
2022-10-17T04:04:16.457Z,54.47
2022-10-17T04:06:56.843Z,54.11
2022-10-17T04:09:43.490Z,53.97
2022-10-17T04:12:25.810Z,53.80
2022-10-17T04:15:12.434Z,53.43
2022-10-17T04:18:01.570Z,53.17
2022-10-17T04:20:42.551Z,53.62
2022-10-17T04:23:29.445Z,53.09
2022-10-17T04:26:20.558Z,53.70
2022-10-17T04:29:07.472Z,53.35
2022-10-17T04:31:50.058Z,52.50
2022-10-17T04:34:56.431Z,52.79
2022-10-17T04:37:43.385Z,52.68
2022-10-17T04:40:32.403Z,52.41
2022-10-17T04:43:12.542Z,51.87
2022-10-17T04:45:59.413Z,53.08
2022-10-17T04:48:46.400Z,52.29
2022-10-17T04:51:33.510Z,52.44
2022-10-17T04:54:33.364Z,52.49
2022-10-17T04:57:22.389Z,52.83
2022-10-17T05:00:18.414Z,53.02
2022-10-17T05:03:05.578Z,52.67
2022-10-17T05:05:53.407Z,52.62
2022-10-17T05:08:34.346Z,52.80
2022-10-17T05:11:40.352Z,52.51
2022-10-17T05:14:27.390Z,52.65
2022-10-17T05:17:14.371Z,52.31
2022-10-17T05:20:01.353Z,52.33
2022-10-17T05:22:42.543Z,52.16
2022-10-17T05:25:29.376Z,52.38
2022-10-17T05:28:16.335Z,52.68
2022-10-17T05:31:09.350Z,52.92
2022-10-17T05:33:56.346Z,52.62
2022-10-17T05:36:38.874Z,52.37
2022-10-17T05:39:27.362Z,53.02
2022-10-17T05:42:07.888Z,53.24
2022-10-17T05:44:54.343Z,53.52
2022-10-17T05:47:34.683Z,54.41
2022-10-17T05:50:23.364Z,53.90
2022-10-17T05:53:11.753Z,53.80
2022-10-17T05:56:13.296Z,53.55
2022-10-17T05:58:57.436Z,53.28
2022-10-17T06:02:20.306Z,53.99
2022-10-17T06:05:07.292Z,53.68
2022-10-17T06:07:58.234Z,53.80
2022-10-17T06:10:42.695Z,52.44
2022-10-17T06:13:30.304Z,51.74
2022-10-17T06:16:23.280Z,49.36
2022-10-17T06:19:10.288Z,45.59
2022-10-17T06:21:50.772Z,43.47
2022-10-17T06:24:39.300Z,43.58
2022-10-17T06:27:20.579Z,41.29
2022-10-17T06:30:07.267Z,40.61
2022-10-17T06:32:47.685Z,40.21
2022-10-17T06:35:35.248Z,41.72
2022-10-17T06:38:22.221Z,40.36
2022-10-17T06:41:20.377Z,39.51
2022-10-17T06:44:07.303Z,40.84
2022-10-17T06:47:08.237Z,41.72
2022-10-17T06:49:56.280Z,41.52
2022-10-17T06:52:42.375Z,40.70
2022-10-17T06:55:47.241Z,41.41
2022-10-17T06:58:49.457Z,41.43
2022-10-17T07:01:43.267Z,39.89
2022-10-17T07:04:33.193Z,41.29
2022-10-17T07:07:13.214Z,39.79
2022-10-17T07:10:00.249Z,39.63
2022-10-17T07:12:42.460Z,37.25
2022-10-17T07:15:29.227Z,39.29
2022-10-17T07:18:09.312Z,38.97
2022-10-17T07:21:01.156Z,38.29
2022-10-17T07:26:29.564Z,37.23
2022-10-17T07:29:17.233Z,33.99
2022-10-17T07:32:12.567Z,31.00
2022-10-17T07:34:59.194Z,32.22
2022-10-17T07:37:39.744Z,32.97
2022-10-17T07:40:28.204Z,34.13
2022-10-17T07:43:08.568Z,33.37
2022-10-17T07:45:55.194Z,33.60
2022-10-17T07:48:36.605Z,33.21
2022-10-17T07:51:25.171Z,35.66
2022-10-17T07:54:06.687Z,34.22
2022-10-17T07:56:57.136Z,32.74
2022-10-17T07:59:38.402Z,33.59
2022-10-17T08:02:37.181Z,31.80
2022-10-17T08:05:17.615Z,32.51
2022-10-17T08:08:04.161Z,32.42
2022-10-17T08:10:51.181Z,33.67
2022-10-17T08:13:31.277Z,36.73
2022-10-17T08:16:20.159Z,36.97
2022-10-17T08:22:01.140Z,36.04
2022-10-17T08:24:42.874Z,34.24
2022-10-17T08:27:31.102Z,34.26
2022-10-17T08:30:18.166Z,31.54
2022-10-17T08:33:05.115Z,31.90
2022-10-17T08:35:45.202Z,32.67
2022-10-17T08:38:35.082Z,34.95
2022-10-17T08:41:34.176Z,35.76
2022-10-17T08:44:24.137Z,36.99
2022-10-17T08:47:08.255Z,38.25
2022-10-17T08:49:59.109Z,36.24
2022-10-17T08:52:48.294Z,36.18
2022-10-17T08:55:47.147Z,35.09
2022-10-17T08:58:41.188Z,36.08
2022-10-17T09:01:34.111Z,31.83
2022-10-17T09:04:42.198Z,30.42
2022-10-17T09:07:48.099Z,30.47
2022-10-17T09:11:10.189Z,32.37
2022-10-17T09:14:20.086Z,34.50
2022-10-17T09:17:31.350Z,36.38
2022-10-17T09:20:24.628Z,38.30
2022-10-17T09:23:25.103Z,37.71
2022-10-17T09:26:19.142Z,40.75
2022-10-17T09:29:01.007Z,40.68
2022-10-17T09:31:59.069Z,41.38
2022-10-17T09:34:39.548Z,40.29
2022-10-17T09:37:31.087Z,40.66
2022-10-17T09:40:21.532Z,41.29
2022-10-17T09:43:08.018Z,41.25
2022-10-17T09:46:11.102Z,40.94
2022-10-17T09:49:28.012Z,41.04
2022-10-17T09:52:24.022Z,42.99
2022-10-17T09:55:24.147Z,41.77
2022-10-17T09:58:14.150Z,40.73
2022-10-17T10:00:55.419Z,38.61
2022-10-17T10:03:42.036Z,37.75
2022-10-17T10:06:27.127Z,36.10
2022-10-17T10:09:29.010Z,38.22
2022-10-17T10:12:32.452Z,36.36
2022-10-17T10:15:44.038Z,34.58
2022-10-17T10:18:33.250Z,35.19
2022-10-17T10:21:37.175Z,34.40
2022-10-17T10:24:20.407Z,36.13
2022-10-17T10:27:10.023Z,38.85
2022-10-17T10:30:03.986Z,39.43
2022-10-17T10:32:53.996Z,36.78
2022-10-17T10:35:43.149Z,37.83
2022-10-17T10:38:31.020Z,36.94
2022-10-17T10:41:14.142Z,35.17
2022-10-17T10:44:03.050Z,37.34
2022-10-17T10:46:50.006Z,35.72
2022-10-17T10:49:32.375Z,39.50
2022-10-17T10:52:22.086Z,39.77
2022-10-17T10:55:17.813Z,39.75
2022-10-17T10:58:09.954Z,43.82
2022-10-17T11:00:58.143Z,40.71
2022-10-17T11:03:50.195Z,33.65
2022-10-17T11:06:43.191Z,32.69
2022-10-17T11:09:51.188Z,31.39
2022-10-17T11:15:53.946Z,37.57
2022-10-17T11:18:51.174Z,34.23
2022-10-17T11:21:43.952Z,34.13
2022-10-17T11:24:34.949Z,32.95
2022-10-17T11:27:16.496Z,33.33
2022-10-17T11:30:03.991Z,33.43
2022-10-17T11:33:01.904Z,32.94
2022-10-17T11:35:53.954Z,33.31
2022-10-17T11:38:52.165Z,32.98
2022-10-17T11:41:49.933Z,33.71
2022-10-17T11:44:39.044Z,34.64
2022-10-17T11:47:34.908Z,37.21
2022-10-17T11:54:05.014Z,44.68
2022-10-17T11:56:55.063Z,44.52
2022-10-17T12:00:11.907Z,46.84
2022-10-17T12:03:27.132Z,48.29
2022-10-17T12:06:20.357Z,48.38
2022-10-17T12:09:09.941Z,48.68
2022-10-17T12:12:05.920Z,48.97
2022-10-17T12:14:57.886Z,49.55
2022-10-17T12:17:47.909Z,50.12
2022-10-17T12:20:34.861Z,51.32
2022-10-17T12:23:15.453Z,51.13
2022-10-17T12:26:11.891Z,50.78
2022-10-17T12:28:52.859Z,51.00
2022-10-17T12:31:40.837Z,50.98
2022-10-17T12:34:31.123Z,51.37
2022-10-17T12:37:11.079Z,51.70
2022-10-17T12:39:57.933Z,51.68
2022-10-17T12:42:46.873Z,52.27
2022-10-17T12:45:53.330Z,52.37
2022-10-17T12:48:51.839Z,52.11
2022-10-17T12:52:16.961Z,51.58
2022-10-17T12:55:19.925Z,50.76
2022-10-17T12:58:08.412Z,51.85
2022-10-17T13:01:18.843Z,52.05
2022-10-17T13:03:56.486Z,53.15
2022-10-17T13:06:46.845Z,53.40
2022-10-17T13:09:35.836Z,53.04
2022-10-17T13:12:28.658Z,53.11
2022-10-17T13:15:24.862Z,52.42
2022-10-17T13:18:13.821Z,52.41
2022-10-17T13:21:12.851Z,52.78
2022-10-17T13:23:54.513Z,53.22
2022-10-17T13:26:40.868Z,53.65
2022-10-17T13:29:31.819Z,53.36
2022-10-17T13:32:18.761Z,53.86
2022-10-17T13:35:36.559Z,53.83
2022-10-17T13:38:27.978Z,54.60
2022-10-17T13:41:34.771Z,55.01
2022-10-17T13:44:34.755Z,55.46
2022-10-17T13:47:28.898Z,55.21
2022-10-17T13:50:44.125Z,55.00
2022-10-17T13:53:43.899Z,55.10
2022-10-17T13:56:32.767Z,55.52
2022-10-17T13:59:38.789Z,55.81
2022-10-17T14:02:43.757Z,56.14
2022-10-17T14:05:32.803Z,56.49
2022-10-17T14:08:22.902Z,56.96
2022-10-17T14:11:09.761Z,56.89
2022-10-17T14:13:52.774Z,57.23
2022-10-17T14:16:55.780Z,57.33
2022-10-17T14:19:38.054Z,57.78
2022-10-17T14:23:04.410Z,58.20
2022-10-17T14:26:03.788Z,58.74
2022-10-17T14:28:47.166Z,58.70
2022-10-17T14:31:45.792Z,58.54
2022-10-17T14:34:31.259Z,58.92
2022-10-17T14:37:54.759Z,58.83
2022-10-17T14:40:41.727Z,59.77
2022-10-17T14:43:26.822Z,59.86
2022-10-17T14:46:13.738Z,60.03
2022-10-17T14:48:59.808Z,60.53
2022-10-17T14:51:56.917Z,60.46
2022-10-17T14:54:53.684Z,60.68
2022-10-17T14:57:34.463Z,61.14
2022-10-17T15:00:20.703Z,60.98
2022-10-17T15:03:07.738Z,61.21
2022-10-17T15:05:54.705Z,61.50
2022-10-17T15:08:35.112Z,61.96
2022-10-17T15:27:37.732Z,65.85
2022-10-17T15:30:32.687Z,65.86
2022-10-17T15:33:19.688Z,65.76
2022-10-17T15:36:06.823Z,66.16
2022-10-17T15:38:46.743Z,65.85
2022-10-17T15:41:35.704Z,66.19
2022-10-17T15:44:15.836Z,66.23
2022-10-17T15:47:03.707Z,66.38
2022-10-17T15:49:43.766Z,66.07
2022-10-17T15:52:30.710Z,66.71
2022-10-17T15:55:17.664Z,66.46
2022-10-17T15:57:58.058Z,66.79
2022-10-17T16:00:44.714Z,67.15
2022-10-17T16:03:31.669Z,67.15
2022-10-17T16:06:14.146Z,67.26
2022-10-17T16:09:00.680Z,67.59
2022-10-17T16:11:53.677Z,68.20
2022-10-17T16:14:34.043Z,68.16
2022-10-17T16:17:22.684Z,68.35
2022-10-17T16:20:03.215Z,68.62
2022-10-17T16:22:49.684Z,69.01
2022-10-17T16:25:45.627Z,69.02
2022-10-17T16:28:32.698Z,68.75
2022-10-17T16:31:42.664Z,68.68
2022-10-17T16:34:29.640Z,68.67
2022-10-17T16:37:09.827Z,68.48
2022-10-17T16:39:58.591Z,68.53
2022-10-17T16:42:38.761Z,68.68
2022-10-17T16:45:28.646Z,68.88
2022-10-17T16:48:08.710Z,68.92
2022-10-17T16:51:02.613Z,68.90
2022-10-17T16:53:45.892Z,69.18
2022-10-17T16:56:38.631Z,69.42
2022-10-17T16:59:19.045Z,69.41
2022-10-17T17:02:05.591Z,69.47
2022-10-17T17:04:45.962Z,69.54
2022-10-17T17:07:26.716Z,70.27
2022-10-17T17:10:13.592Z,70.17
2022-10-17T17:12:53.961Z,70.68
2022-10-17T17:15:40.631Z,71.24
2022-10-17T17:18:27.596Z,71.43
2022-10-17T17:21:09.679Z,71.72
2022-10-17T17:23:56.556Z,71.65
2022-10-17T17:26:43.693Z,71.87
2022-10-17T17:29:23.564Z,71.55
2022-10-17T17:32:04.108Z,72.17
2022-10-17T17:34:51.562Z,72.33
2022-10-17T17:37:38.562Z,71.93
2022-10-17T17:40:18.702Z,71.88
2022-10-17T17:45:47.711Z,72.77
2022-10-17T17:48:34.526Z,72.76
2022-10-17T17:51:28.487Z,73.11
2022-10-17T17:54:17.551Z,72.91
2022-10-17T17:57:04.551Z,73.16
2022-10-17T17:59:45.666Z,73.35
2022-10-17T18:02:32.736Z,73.17
2022-10-17T18:05:13.644Z,73.67
2022-10-17T18:08:00.550Z,73.80
2022-10-17T18:10:40.599Z,74.27
2022-10-17T18:13:27.559Z,74.62
2022-10-17T18:16:17.456Z,74.22
2022-10-17T18:19:05.952Z,74.37
2022-10-17T18:21:53.514Z,75.13
2022-10-17T18:24:33.905Z,75.15
2022-10-17T18:27:22.536Z,75.23
2022-10-17T18:30:04.227Z,75.41
2022-10-17T18:32:50.517Z,75.41
2022-10-17T18:35:37.483Z,75.61
2022-10-17T18:38:17.608Z,75.70
2022-10-17T18:41:19.477Z,76.31
2022-10-17T18:44:09.456Z,76.56
2022-10-17T18:46:58.644Z,76.58
2022-10-17T18:49:49.468Z,76.50
2022-10-17T18:52:36.549Z,76.69
2022-10-17T18:55:24.482Z,77.17
2022-10-17T18:58:11.503Z,77.20
2022-10-17T19:00:59.454Z,77.14
2022-10-17T19:03:39.813Z,76.90
2022-10-17T19:06:29.479Z,77.44
2022-10-17T19:09:18.438Z,78.05
2022-10-17T19:11:58.635Z,78.65
2022-10-17T19:14:45.442Z,78.81
2022-10-17T19:17:32.792Z,78.98
2022-10-17T19:20:12.780Z,79.66
2022-10-17T19:22:59.417Z,80.25
2022-10-17T19:25:46.406Z,79.65
2022-10-17T19:28:26.745Z,79.70
2022-10-17T19:31:16.906Z,80.29
2022-10-17T19:34:04.453Z,80.56
2022-10-17T19:36:45.241Z,81.00
2022-10-17T19:39:34.420Z,81.20
2022-10-17T19:42:14.865Z,81.53
2022-10-17T19:45:01.410Z,80.99
2022-10-17T19:47:41.805Z,81.31
2022-10-17T19:50:28.484Z,81.81
2022-10-17T19:53:08.762Z,81.66
2022-10-17T19:55:55.415Z,81.61
2022-10-17T19:58:43.743Z,82.57
2022-10-17T20:01:33.439Z,82.42
2022-10-17T20:04:20.386Z,82.70
2022-10-17T20:07:00.524Z,82.42
2022-10-17T20:09:47.418Z,81.81
2022-10-17T20:12:27.701Z,82.10
2022-10-17T20:15:14.341Z,82.77
2022-10-17T20:17:54.446Z,82.96
2022-10-17T20:20:42.350Z,83.63
2022-10-17T20:23:22.561Z,83.87
2022-10-17T20:26:37.084Z,85.01
2022-10-17T20:29:15.517Z,85.15
2022-10-17T20:32:03.335Z,84.64
2022-10-17T20:34:50.361Z,85.97
2022-10-17T20:37:42.691Z,85.78
2022-10-17T20:40:34.719Z,85.92
2022-10-17T20:43:17.377Z,85.86
2022-10-17T20:46:04.614Z,86.13
2022-10-17T20:48:56.349Z,86.52
2022-10-17T20:51:50.351Z,86.36
2022-10-17T20:54:30.729Z,86.40
2022-10-17T20:57:18.294Z,87.19
2022-10-17T21:00:05.314Z,87.12
2022-10-17T21:02:45.510Z,87.23
2022-10-17T21:05:32.323Z,87.60
2022-10-17T21:08:13.420Z,87.80
2022-10-17T21:11:00.297Z,87.24
2022-10-17T21:13:47.307Z,87.52
2022-10-17T21:16:35.313Z,87.44
2022-10-17T21:19:17.436Z,87.54
2022-10-17T21:22:04.297Z,88.00
2022-10-17T21:24:51.299Z,88.18
2022-10-17T21:27:31.682Z,87.46
2022-10-17T21:30:19.282Z,87.69
2022-10-17T21:32:59.698Z,88.30
2022-10-17T21:35:46.300Z,87.90
2022-10-17T21:38:26.627Z,87.43
2022-10-17T21:41:13.275Z,87.87
2022-10-17T21:44:26.974Z,88.28
2022-10-17T21:47:13.289Z,88.17
2022-10-17T21:50:00.286Z,88.03
2022-10-17T21:52:40.336Z,88.65
2022-10-17T21:55:27.272Z,88.11
2022-10-17T21:58:07.369Z,88.57
2022-10-17T22:00:54.236Z,88.55
2022-10-17T22:03:44.135Z,88.63
2022-10-17T22:06:40.632Z,88.33
2022-10-17T22:09:23.313Z,88.30
2022-10-17T22:12:10.214Z,88.50
2022-10-17T22:14:57.234Z,88.18
2022-10-17T22:17:37.557Z,88.58
2022-10-17T22:20:24.190Z,88.22
2022-10-17T22:23:04.606Z,87.94
2022-10-17T22:25:51.206Z,87.81
2022-10-17T22:28:38.242Z,88.16
2022-10-17T22:31:18.277Z,88.33
2022-10-17T22:34:05.600Z,88.28
2022-10-17T22:36:45.387Z,88.14
2022-10-17T22:39:32.170Z,88.24
2022-10-17T22:42:12.441Z,88.38
2022-10-17T22:44:59.160Z,87.39
2022-10-17T22:47:39.265Z,87.53
2022-10-17T22:50:28.246Z,86.76
2022-10-17T22:53:08.349Z,86.31
2022-10-17T22:56:03.160Z,85.81
2022-10-17T22:58:43.279Z,85.31
2022-10-17T23:01:31.179Z,84.92
2022-10-17T23:04:11.219Z,84.15
2022-10-17T23:06:58.150Z,84.36
2022-10-17T23:09:38.289Z,83.84
2022-10-17T23:12:25.144Z,83.37
2022-10-17T23:15:05.231Z,83.58
2022-10-17T23:17:52.127Z,83.12
2022-10-17T23:20:32.214Z,83.21
2022-10-17T23:23:19.147Z,82.73
2022-10-17T23:25:59.218Z,82.47
2022-10-17T23:28:47.191Z,81.93
2022-10-17T23:31:28.238Z,82.40
2022-10-17T23:34:15.097Z,82.21
2022-10-17T23:36:55.235Z,82.60
2022-10-17T23:39:42.115Z,82.85
2022-10-17T23:42:29.122Z,82.86
2022-10-17T23:45:10.002Z,83.17
2022-10-17T23:47:57.138Z,83.01
2022-10-17T23:50:37.490Z,82.34
2022-10-17T23:53:24.120Z,82.97
2022-10-17T23:56:12.088Z,82.31
2022-10-17T23:58:52.501Z,81.79
